sensor_id;sensor_type;location;lat;lon;timestamp;P1;durP1;ratioP1;P2;durP2;ratioP2
9821;SDS011;4950;46.042;14.472;2023-12-14T00:01:44;19.98;;;13.25;;
9821;SDS011;4950;46.042;14.472;2023-12-14T00:04:11;18.60;;;14.15;;
9821;SDS011;4950;46.042;14.472;2023-12-14T00:06:38;15.43;;;12.68;;
9821;SDS011;4950;46.042;14.472;2023-12-14T00:09:04;18.15;;;14.10;;
9821;SDS011;4950;46.042;14.472;2023-12-14T00:11:35;20.00;;;14.75;;
9821;SDS011;4950;46.042;14.472;2023-12-14T00:14:04;21.63;;;16.20;;
9821;SDS011;4950;46.042;14.472;2023-12-14T00:16:30;21.80;;;15.85;;
9821;SDS011;4950;46.042;14.472;2023-12-14T00:18:57;21.88;;;16.00;;
9821;SDS011;4950;46.042;14.472;2023-12-14T00:21:24;19.35;;;14.93;;
9821;SDS011;4950;46.042;14.472;2023-12-14T00:23:50;21.33;;;16.52;;
9821;SDS011;4950;46.042;14.472;2023-12-14T00:26:17;23.35;;;17.67;;
9821;SDS011;4950;46.042;14.472;2023-12-14T00:28:46;24.00;;;18.65;;
9821;SDS011;4950;46.042;14.472;2023-12-14T00:31:12;23.27;;;17.80;;
9821;SDS011;4950;46.042;14.472;2023-12-14T00:33:39;24.38;;;19.15;;
9821;SDS011;4950;46.042;14.472;2023-12-14T00:36:06;26.30;;;18.73;;
9821;SDS011;4950;46.042;14.472;2023-12-14T00:38:33;27.23;;;19.95;;
9821;SDS011;4950;46.042;14.472;2023-12-14T00:41:00;26.15;;;19.80;;
9821;SDS011;4950;46.042;14.472;2023-12-14T00:43:27;24.83;;;19.63;;
9821;SDS011;4950;46.042;14.472;2023-12-14T00:45:55;24.65;;;19.02;;
9821;SDS011;4950;46.042;14.472;2023-12-14T00:48:21;27.20;;;20.13;;
9821;SDS011;4950;46.042;14.472;2023-12-14T00:50:48;28.15;;;19.95;;
9821;SDS011;4950;46.042;14.472;2023-12-14T00:53:15;27.10;;;20.55;;
9821;SDS011;4950;46.042;14.472;2023-12-14T00:55:41;27.33;;;21.35;;
9821;SDS011;4950;46.042;14.472;2023-12-14T00:58:09;26.95;;;20.48;;
9821;SDS011;4950;46.042;14.472;2023-12-14T01:00:38;27.20;;;21.02;;
9821;SDS011;4950;46.042;14.472;2023-12-14T01:03:06;26.80;;;18.70;;
9821;SDS011;4950;46.042;14.472;2023-12-14T01:05:32;25.52;;;19.48;;
9821;SDS011;4950;46.042;14.472;2023-12-14T01:07:59;25.55;;;19.33;;
9821;SDS011;4950;46.042;14.472;2023-12-14T01:10:26;25.98;;;19.63;;
9821;SDS011;4950;46.042;14.472;2023-12-14T01:12:53;24.25;;;18.90;;
9821;SDS011;4950;46.042;14.472;2023-12-14T01:15:19;25.58;;;19.45;;
9821;SDS011;4950;46.042;14.472;2023-12-14T01:17:46;25.13;;;19.80;;
9821;SDS011;4950;46.042;14.472;2023-12-14T01:20:14;27.75;;;19.50;;
9821;SDS011;4950;46.042;14.472;2023-12-14T01:22:41;27.23;;;18.55;;
9821;SDS011;4950;46.042;14.472;2023-12-14T01:25:07;29.23;;;19.33;;
9821;SDS011;4950;46.042;14.472;2023-12-14T01:27:34;26.50;;;19.10;;
9821;SDS011;4950;46.042;14.472;2023-12-14T01:30:01;29.75;;;20.95;;
9821;SDS011;4950;46.042;14.472;2023-12-14T01:32:28;27.70;;;19.80;;
9821;SDS011;4950;46.042;14.472;2023-12-14T01:34:55;28.60;;;20.40;;
9821;SDS011;4950;46.042;14.472;2023-12-14T01:37:23;27.02;;;20.25;;
9821;SDS011;4950;46.042;14.472;2023-12-14T01:39:49;31.23;;;22.23;;
9821;SDS011;4950;46.042;14.472;2023-12-14T01:42:16;32.33;;;19.98;;
9821;SDS011;4950;46.042;14.472;2023-12-14T01:44:43;31.13;;;21.88;;
9821;SDS011;4950;46.042;14.472;2023-12-14T01:47:10;31.20;;;22.02;;
9821;SDS011;4950;46.042;14.472;2023-12-14T01:49:36;30.65;;;20.70;;
9821;SDS011;4950;46.042;14.472;2023-12-14T01:52:04;28.95;;;20.85;;
9821;SDS011;4950;46.042;14.472;2023-12-14T01:54:33;27.83;;;20.35;;
9821;SDS011;4950;46.042;14.472;2023-12-14T01:56:59;30.35;;;20.73;;
9821;SDS011;4950;46.042;14.472;2023-12-14T01:59:26;27.13;;;19.50;;
9821;SDS011;4950;46.042;14.472;2023-12-14T02:01:53;24.88;;;17.50;;
9821;SDS011;4950;46.042;14.472;2023-12-14T02:04:22;25.08;;;18.05;;
9821;SDS011;4950;46.042;14.472;2023-12-14T02:06:50;22.90;;;16.98;;
9821;SDS011;4950;46.042;14.472;2023-12-14T02:09:17;27.10;;;18.13;;
9821;SDS011;4950;46.042;14.472;2023-12-14T02:11:45;25.40;;;18.60;;
9821;SDS011;4950;46.042;14.472;2023-12-14T02:14:12;24.48;;;18.33;;
9821;SDS011;4950;46.042;14.472;2023-12-14T02:16:39;23.20;;;18.08;;
9821;SDS011;4950;46.042;14.472;2023-12-14T02:19:06;23.42;;;17.35;;
9821;SDS011;4950;46.042;14.472;2023-12-14T02:21:32;21.98;;;16.35;;
9821;SDS011;4950;46.042;14.472;2023-12-14T02:24:00;21.38;;;15.90;;
9821;SDS011;4950;46.042;14.472;2023-12-14T02:26:27;22.85;;;17.42;;
9821;SDS011;4950;46.042;14.472;2023-12-14T02:28:54;22.85;;;17.52;;
9821;SDS011;4950;46.042;14.472;2023-12-14T02:31:21;21.25;;;16.05;;
9821;SDS011;4950;46.042;14.472;2023-12-14T02:33:48;20.92;;;15.45;;
9821;SDS011;4950;46.042;14.472;2023-12-14T02:36:15;25.95;;;17.98;;
9821;SDS011;4950;46.042;14.472;2023-12-14T02:38:42;24.45;;;17.25;;
9821;SDS011;4950;46.042;14.472;2023-12-14T02:41:11;24.55;;;18.50;;
9821;SDS011;4950;46.042;14.472;2023-12-14T02:43:38;24.73;;;17.70;;
9821;SDS011;4950;46.042;14.472;2023-12-14T02:46:05;22.20;;;16.33;;
9821;SDS011;4950;46.042;14.472;2023-12-14T02:48:32;22.35;;;16.20;;
9821;SDS011;4950;46.042;14.472;2023-12-14T02:50:59;23.17;;;17.35;;
9821;SDS011;4950;46.042;14.472;2023-12-14T02:53:26;24.45;;;16.88;;
9821;SDS011;4950;46.042;14.472;2023-12-14T02:55:53;20.77;;;15.95;;
9821;SDS011;4950;46.042;14.472;2023-12-14T02:58:21;24.73;;;17.13;;
9821;SDS011;4950;46.042;14.472;2023-12-14T03:00:48;24.60;;;17.67;;
9821;SDS011;4950;46.042;14.472;2023-12-14T03:03:15;26.17;;;18.25;;
9821;SDS011;4950;46.042;14.472;2023-12-14T03:05:41;27.73;;;19.60;;
9821;SDS011;4950;46.042;14.472;2023-12-14T03:08:08;25.08;;;19.23;;
9821;SDS011;4950;46.042;14.472;2023-12-14T03:10:35;25.73;;;19.10;;
9821;SDS011;4950;46.042;14.472;2023-12-14T03:13:01;25.33;;;18.38;;
9821;SDS011;4950;46.042;14.472;2023-12-14T03:15:30;25.95;;;18.63;;
9821;SDS011;4950;46.042;14.472;2023-12-14T03:17:56;25.10;;;17.95;;
9821;SDS011;4950;46.042;14.472;2023-12-14T03:20:23;28.65;;;19.42;;
9821;SDS011;4950;46.042;14.472;2023-12-14T03:22:50;25.33;;;19.13;;
9821;SDS011;4950;46.042;14.472;2023-12-14T03:25:16;26.55;;;19.05;;
9821;SDS011;4950;46.042;14.472;2023-12-14T03:27:43;25.85;;;18.73;;
9821;SDS011;4950;46.042;14.472;2023-12-14T03:30:10;25.60;;;19.73;;
9821;SDS011;4950;46.042;14.472;2023-12-14T03:32:38;24.02;;;18.13;;
9821;SDS011;4950;46.042;14.472;2023-12-14T03:35:05;24.58;;;17.83;;
9821;SDS011;4950;46.042;14.472;2023-12-14T03:37:33;28.65;;;18.65;;
9821;SDS011;4950;46.042;14.472;2023-12-14T03:40:00;26.65;;;19.08;;
9821;SDS011;4950;46.042;14.472;2023-12-14T03:42:27;26.25;;;18.83;;
9821;SDS011;4950;46.042;14.472;2023-12-14T03:44:54;25.35;;;18.65;;
9821;SDS011;4950;46.042;14.472;2023-12-14T03:47:20;27.10;;;19.85;;
9821;SDS011;4950;46.042;14.472;2023-12-14T03:49:49;25.15;;;18.20;;
9821;SDS011;4950;46.042;14.472;2023-12-14T03:52:15;25.75;;;17.95;;
9821;SDS011;4950;46.042;14.472;2023-12-14T03:54:42;23.92;;;17.85;;
9821;SDS011;4950;46.042;14.472;2023-12-14T03:57:08;23.63;;;16.80;;
9821;SDS011;4950;46.042;14.472;2023-12-14T03:59:38;24.33;;;17.35;;
9821;SDS011;4950;46.042;14.472;2023-12-14T04:04:32;24.67;;;17.38;;
9821;SDS011;4950;46.042;14.472;2023-12-14T04:07:00;22.35;;;16.13;;
9821;SDS011;4950;46.042;14.472;2023-12-14T04:09:27;22.50;;;17.15;;
9821;SDS011;4950;46.042;14.472;2023-12-14T04:11:53;24.05;;;18.13;;
9821;SDS011;4950;46.042;14.472;2023-12-14T04:14:20;22.75;;;17.30;;
9821;SDS011;4950;46.042;14.472;2023-12-14T04:16:47;24.83;;;18.23;;
9821;SDS011;4950;46.042;14.472;2023-12-14T04:19:12;24.00;;;17.63;;
9821;SDS011;4950;46.042;14.472;2023-12-14T04:21:39;26.25;;;18.20;;
9821;SDS011;4950;46.042;14.472;2023-12-14T04:24:07;26.67;;;18.17;;
9821;SDS011;4950;46.042;14.472;2023-12-14T04:26:34;29.17;;;20.95;;
9821;SDS011;4950;46.042;14.472;2023-12-14T04:29:02;28.02;;;19.00;;
9821;SDS011;4950;46.042;14.472;2023-12-14T04:31:28;30.55;;;20.17;;
9821;SDS011;4950;46.042;14.472;2023-12-14T04:33:55;28.48;;;20.35;;
9821;SDS011;4950;46.042;14.472;2023-12-14T04:36:22;27.65;;;19.85;;
9821;SDS011;4950;46.042;14.472;2023-12-14T04:38:49;27.60;;;19.33;;
9821;SDS011;4950;46.042;14.472;2023-12-14T04:41:17;27.30;;;19.80;;
9821;SDS011;4950;46.042;14.472;2023-12-14T04:43:43;27.90;;;19.85;;
9821;SDS011;4950;46.042;14.472;2023-12-14T04:46:11;29.77;;;20.85;;
9821;SDS011;4950;46.042;14.472;2023-12-14T04:48:37;36.47;;;25.05;;
9821;SDS011;4950;46.042;14.472;2023-12-14T04:51:04;33.53;;;21.73;;
9821;SDS011;4950;46.042;14.472;2023-12-14T04:53:31;27.83;;;19.55;;
9821;SDS011;4950;46.042;14.472;2023-12-14T04:55:58;28.70;;;20.67;;
9821;SDS011;4950;46.042;14.472;2023-12-14T04:58:26;23.90;;;17.08;;
9821;SDS011;4950;46.042;14.472;2023-12-14T05:00:53;26.40;;;18.65;;
9821;SDS011;4950;46.042;14.472;2023-12-14T05:03:19;27.77;;;17.67;;
9821;SDS011;4950;46.042;14.472;2023-12-14T05:05:46;28.27;;;18.92;;
9821;SDS011;4950;46.042;14.472;2023-12-14T05:08:14;25.92;;;18.88;;
9821;SDS011;4950;46.042;14.472;2023-12-14T05:10:40;24.73;;;17.90;;
9821;SDS011;4950;46.042;14.472;2023-12-14T05:13:07;24.23;;;18.42;;
9821;SDS011;4950;46.042;14.472;2023-12-14T05:15:35;26.38;;;19.02;;
9821;SDS011;4950;46.042;14.472;2023-12-14T05:18:02;25.77;;;18.55;;
9821;SDS011;4950;46.042;14.472;2023-12-14T05:20:28;27.15;;;17.83;;
9821;SDS011;4950;46.042;14.472;2023-12-14T05:22:55;26.65;;;18.92;;
9821;SDS011;4950;46.042;14.472;2023-12-14T05:25:22;25.23;;;17.85;;
9821;SDS011;4950;46.042;14.472;2023-12-14T05:27:49;23.95;;;17.63;;
9821;SDS011;4950;46.042;14.472;2023-12-14T05:30:16;24.55;;;18.25;;
9821;SDS011;4950;46.042;14.472;2023-12-14T05:32:44;26.15;;;18.95;;
9821;SDS011;4950;46.042;14.472;2023-12-14T05:35:11;27.23;;;19.00;;
9821;SDS011;4950;46.042;14.472;2023-12-14T05:37:38;27.30;;;19.92;;
9821;SDS011;4950;46.042;14.472;2023-12-14T05:40:07;28.40;;;18.55;;
9821;SDS011;4950;46.042;14.472;2023-12-14T05:42:34;28.40;;;20.45;;
9821;SDS011;4950;46.042;14.472;2023-12-14T05:45:01;29.55;;;20.77;;
9821;SDS011;4950;46.042;14.472;2023-12-14T05:47:28;31.40;;;22.70;;
9821;SDS011;4950;46.042;14.472;2023-12-14T05:49:56;32.75;;;23.33;;
9821;SDS011;4950;46.042;14.472;2023-12-14T05:52:24;32.83;;;23.83;;
9821;SDS011;4950;46.042;14.472;2023-12-14T05:54:51;35.42;;;25.00;;
9821;SDS011;4950;46.042;14.472;2023-12-14T05:57:17;35.13;;;23.92;;
9821;SDS011;4950;46.042;14.472;2023-12-14T05:59:44;34.00;;;25.27;;
9821;SDS011;4950;46.042;14.472;2023-12-14T06:02:11;39.63;;;28.30;;
9821;SDS011;4950;46.042;14.472;2023-12-14T06:04:38;35.70;;;25.25;;
9821;SDS011;4950;46.042;14.472;2023-12-14T06:07:06;35.85;;;24.65;;
9821;SDS011;4950;46.042;14.472;2023-12-14T06:09:34;33.58;;;24.55;;
9821;SDS011;4950;46.042;14.472;2023-12-14T06:12:01;35.55;;;24.35;;
9821;SDS011;4950;46.042;14.472;2023-12-14T06:14:28;35.28;;;23.80;;
9821;SDS011;4950;46.042;14.472;2023-12-14T06:16:55;36.20;;;24.75;;
9821;SDS011;4950;46.042;14.472;2023-12-14T06:19:22;38.75;;;24.90;;
9821;SDS011;4950;46.042;14.472;2023-12-14T06:21:49;41.55;;;26.45;;
9821;SDS011;4950;46.042;14.472;2023-12-14T06:24:18;38.60;;;25.85;;
9821;SDS011;4950;46.042;14.472;2023-12-14T06:26:46;35.17;;;24.60;;
9821;SDS011;4950;46.042;14.472;2023-12-14T06:29:12;38.17;;;26.23;;
9821;SDS011;4950;46.042;14.472;2023-12-14T06:31:39;34.63;;;23.50;;
9821;SDS011;4950;46.042;14.472;2023-12-14T06:34:06;37.95;;;24.67;;
9821;SDS011;4950;46.042;14.472;2023-12-14T06:36:33;35.92;;;24.42;;
9821;SDS011;4950;46.042;14.472;2023-12-14T06:39:00;36.22;;;24.70;;
9821;SDS011;4950;46.042;14.472;2023-12-14T06:41:29;32.83;;;24.23;;
9821;SDS011;4950;46.042;14.472;2023-12-14T06:43:57;35.25;;;24.63;;
9821;SDS011;4950;46.042;14.472;2023-12-14T06:46:24;33.40;;;23.88;;
9821;SDS011;4950;46.042;14.472;2023-12-14T06:48:51;34.10;;;23.23;;
9821;SDS011;4950;46.042;14.472;2023-12-14T06:51:18;33.25;;;21.48;;
9821;SDS011;4950;46.042;14.472;2023-12-14T06:53:45;33.53;;;21.85;;
9821;SDS011;4950;46.042;14.472;2023-12-14T06:56:12;34.30;;;22.42;;
9821;SDS011;4950;46.042;14.472;2023-12-14T06:58:41;32.10;;;21.27;;
9821;SDS011;4950;46.042;14.472;2023-12-14T07:03:39;32.40;;;21.83;;
9821;SDS011;4950;46.042;14.472;2023-12-14T07:06:06;31.58;;;21.17;;
9821;SDS011;4950;46.042;14.472;2023-12-14T07:08:33;32.85;;;22.05;;
9821;SDS011;4950;46.042;14.472;2023-12-14T07:11:00;32.40;;;22.40;;
9821;SDS011;4950;46.042;14.472;2023-12-14T07:13:26;32.40;;;21.83;;
9821;SDS011;4950;46.042;14.472;2023-12-14T07:15:54;30.80;;;20.58;;
9821;SDS011;4950;46.042;14.472;2023-12-14T07:18:20;32.97;;;21.92;;
9821;SDS011;4950;46.042;14.472;2023-12-14T07:20:47;29.38;;;19.30;;
9821;SDS011;4950;46.042;14.472;2023-12-14T07:23:14;30.00;;;20.15;;
9821;SDS011;4950;46.042;14.472;2023-12-14T07:25:41;29.02;;;19.77;;
9821;SDS011;4950;46.042;14.472;2023-12-14T07:28:08;29.17;;;20.30;;
9821;SDS011;4950;46.042;14.472;2023-12-14T07:30:35;31.48;;;21.10;;
9821;SDS011;4950;46.042;14.472;2023-12-14T07:33:03;33.63;;;22.08;;
9821;SDS011;4950;46.042;14.472;2023-12-14T07:35:30;32.30;;;21.13;;
9821;SDS011;4950;46.042;14.472;2023-12-14T07:37:57;31.35;;;21.65;;
9821;SDS011;4950;46.042;14.472;2023-12-14T07:40:23;33.05;;;22.83;;
9821;SDS011;4950;46.042;14.472;2023-12-14T07:42:50;33.65;;;21.55;;
9821;SDS011;4950;46.042;14.472;2023-12-14T07:45:17;30.65;;;20.40;;
9821;SDS011;4950;46.042;14.472;2023-12-14T07:47:44;34.40;;;22.25;;
9821;SDS011;4950;46.042;14.472;2023-12-14T07:50:13;30.17;;;21.00;;
9821;SDS011;4950;46.042;14.472;2023-12-14T07:52:40;30.05;;;20.15;;
9821;SDS011;4950;46.042;14.472;2023-12-14T07:55:07;30.42;;;20.60;;
9821;SDS011;4950;46.042;14.472;2023-12-14T07:57:34;28.98;;;20.17;;
9821;SDS011;4950;46.042;14.472;2023-12-14T08:00:01;28.55;;;19.52;;
9821;SDS011;4950;46.042;14.472;2023-12-14T08:02:29;31.80;;;20.67;;
9821;SDS011;4950;46.042;14.472;2023-12-14T08:04:55;32.58;;;20.10;;
9821;SDS011;4950;46.042;14.472;2023-12-14T08:07:23;29.48;;;18.45;;
9821;SDS011;4950;46.042;14.472;2023-12-14T08:09:54;28.92;;;19.48;;
9821;SDS011;4950;46.042;14.472;2023-12-14T08:12:21;28.90;;;19.08;;
9821;SDS011;4950;46.042;14.472;2023-12-14T08:14:47;28.75;;;18.63;;
9821;SDS011;4950;46.042;14.472;2023-12-14T08:17:14;24.20;;;16.08;;
9821;SDS011;4950;46.042;14.472;2023-12-14T08:19:41;26.58;;;17.33;;
9821;SDS011;4950;46.042;14.472;2023-12-14T08:22:08;27.33;;;16.40;;
9821;SDS011;4950;46.042;14.472;2023-12-14T08:24:39;23.58;;;15.90;;
9821;SDS011;4950;46.042;14.472;2023-12-14T08:27:05;26.42;;;17.92;;
9821;SDS011;4950;46.042;14.472;2023-12-14T08:29:32;26.08;;;17.38;;
9821;SDS011;4950;46.042;14.472;2023-12-14T08:31:59;25.63;;;16.20;;
9821;SDS011;4950;46.042;14.472;2023-12-14T08:34:26;24.20;;;15.90;;
9821;SDS011;4950;46.042;14.472;2023-12-14T08:36:53;24.83;;;15.73;;
9821;SDS011;4950;46.042;14.472;2023-12-14T08:39:20;26.48;;;17.15;;
9821;SDS011;4950;46.042;14.472;2023-12-14T08:41:48;24.65;;;15.90;;
9821;SDS011;4950;46.042;14.472;2023-12-14T08:44:15;25.85;;;16.88;;
9821;SDS011;4950;46.042;14.472;2023-12-14T08:46:43;26.00;;;16.60;;
9821;SDS011;4950;46.042;14.472;2023-12-14T08:49:11;27.35;;;17.38;;
9821;SDS011;4950;46.042;14.472;2023-12-14T08:51:38;24.80;;;16.83;;
9821;SDS011;4950;46.042;14.472;2023-12-14T08:54:05;29.23;;;18.25;;
9821;SDS011;4950;46.042;14.472;2023-12-14T08:56:33;27.50;;;16.63;;
9821;SDS011;4950;46.042;14.472;2023-12-14T08:59:01;28.02;;;16.77;;
9821;SDS011;4950;46.042;14.472;2023-12-14T09:01:29;27.25;;;18.20;;
9821;SDS011;4950;46.042;14.472;2023-12-14T09:03:55;26.50;;;17.90;;
9821;SDS011;4950;46.042;14.472;2023-12-14T09:06:22;27.33;;;17.88;;
9821;SDS011;4950;46.042;14.472;2023-12-14T09:08:49;27.42;;;17.88;;
9821;SDS011;4950;46.042;14.472;2023-12-14T09:11:15;27.92;;;17.95;;
9821;SDS011;4950;46.042;14.472;2023-12-14T09:13:42;25.38;;;16.70;;
9821;SDS011;4950;46.042;14.472;2023-12-14T09:16:10;25.33;;;17.05;;
9821;SDS011;4950;46.042;14.472;2023-12-14T09:18:37;26.35;;;16.80;;
9821;SDS011;4950;46.042;14.472;2023-12-14T09:21:04;25.67;;;17.00;;
9821;SDS011;4950;46.042;14.472;2023-12-14T09:23:31;30.15;;;19.40;;
9821;SDS011;4950;46.042;14.472;2023-12-14T09:25:58;28.83;;;18.90;;
9821;SDS011;4950;46.042;14.472;2023-12-14T09:28:24;26.83;;;17.60;;
9821;SDS011;4950;46.042;14.472;2023-12-14T09:30:51;26.85;;;18.30;;
9821;SDS011;4950;46.042;14.472;2023-12-14T09:33:19;30.88;;;19.52;;
9821;SDS011;4950;46.042;14.472;2023-12-14T09:35:46;29.98;;;19.48;;
9821;SDS011;4950;46.042;14.472;2023-12-14T09:38:13;32.10;;;20.98;;
9821;SDS011;4950;46.042;14.472;2023-12-14T09:40:42;30.40;;;19.85;;
9821;SDS011;4950;46.042;14.472;2023-12-14T09:43:10;32.50;;;19.65;;
9821;SDS011;4950;46.042;14.472;2023-12-14T09:45:37;32.35;;;18.33;;
9821;SDS011;4950;46.042;14.472;2023-12-14T09:48:10;28.50;;;19.23;;
9821;SDS011;4950;46.042;14.472;2023-12-14T09:50:40;32.20;;;20.55;;
9821;SDS011;4950;46.042;14.472;2023-12-14T09:53:07;30.40;;;19.38;;
9821;SDS011;4950;46.042;14.472;2023-12-14T09:55:36;30.58;;;20.00;;
9821;SDS011;4950;46.042;14.472;2023-12-14T09:58:02;31.92;;;19.95;;
9821;SDS011;4950;46.042;14.472;2023-12-14T10:00:34;31.33;;;21.30;;
9821;SDS011;4950;46.042;14.472;2023-12-14T10:03:21;32.40;;;20.75;;
9821;SDS011;4950;46.042;14.472;2023-12-14T10:05:50;33.65;;;20.83;;
9821;SDS011;4950;46.042;14.472;2023-12-14T10:08:17;30.10;;;19.13;;
9821;SDS011;4950;46.042;14.472;2023-12-14T10:10:45;33.42;;;21.73;;
9821;SDS011;4950;46.042;14.472;2023-12-14T10:13:14;32.72;;;21.55;;
9821;SDS011;4950;46.042;14.472;2023-12-14T10:15:41;30.08;;;19.88;;
9821;SDS011;4950;46.042;14.472;2023-12-14T10:18:08;33.55;;;20.60;;
9821;SDS011;4950;46.042;14.472;2023-12-14T10:20:35;30.60;;;20.73;;
9821;SDS011;4950;46.042;14.472;2023-12-14T10:23:04;35.40;;;22.45;;
9821;SDS011;4950;46.042;14.472;2023-12-14T10:25:32;30.60;;;20.85;;
9821;SDS011;4950;46.042;14.472;2023-12-14T10:27:59;30.90;;;20.30;;
9821;SDS011;4950;46.042;14.472;2023-12-14T10:30:28;29.13;;;18.50;;
9821;SDS011;4950;46.042;14.472;2023-12-14T10:32:55;32.53;;;20.67;;
9821;SDS011;4950;46.042;14.472;2023-12-14T10:35:22;28.55;;;19.02;;
9821;SDS011;4950;46.042;14.472;2023-12-14T10:37:50;33.30;;;20.95;;
9821;SDS011;4950;46.042;14.472;2023-12-14T10:40:19;31.80;;;21.40;;
9821;SDS011;4950;46.042;14.472;2023-12-14T10:42:46;30.73;;;20.80;;
9821;SDS011;4950;46.042;14.472;2023-12-14T10:45:14;30.77;;;20.63;;
9821;SDS011;4950;46.042;14.472;2023-12-14T10:47:43;34.60;;;21.67;;
9821;SDS011;4950;46.042;14.472;2023-12-14T10:50:11;34.97;;;21.70;;
9821;SDS011;4950;46.042;14.472;2023-12-14T10:52:38;32.45;;;20.85;;
9821;SDS011;4950;46.042;14.472;2023-12-14T10:55:07;34.53;;;22.35;;
9821;SDS011;4950;46.042;14.472;2023-12-14T10:57:39;32.25;;;20.77;;
9821;SDS011;4950;46.042;14.472;2023-12-14T11:00:06;37.42;;;23.35;;
9821;SDS011;4950;46.042;14.472;2023-12-14T11:02:38;35.25;;;23.13;;
9821;SDS011;4950;46.042;14.472;2023-12-14T11:05:08;37.90;;;23.48;;
9821;SDS011;4950;46.042;14.472;2023-12-14T11:07:43;34.28;;;21.40;;
9821;SDS011;4950;46.042;14.472;2023-12-14T11:10:11;33.30;;;22.15;;
9821;SDS011;4950;46.042;14.472;2023-12-14T11:12:39;33.00;;;21.73;;
9821;SDS011;4950;46.042;14.472;2023-12-14T11:15:17;38.60;;;22.48;;
9821;SDS011;4950;46.042;14.472;2023-12-14T11:17:57;34.10;;;22.23;;
9821;SDS011;4950;46.042;14.472;2023-12-14T11:20:51;32.42;;;20.75;;
9821;SDS011;4950;46.042;14.472;2023-12-14T11:23:27;30.50;;;19.55;;
9821;SDS011;4950;46.042;14.472;2023-12-14T11:25:59;30.67;;;19.88;;
9821;SDS011;4950;46.042;14.472;2023-12-14T11:28:31;29.30;;;19.48;;
9821;SDS011;4950;46.042;14.472;2023-12-14T11:33:26;30.05;;;19.60;;
9821;SDS011;4950;46.042;14.472;2023-12-14T11:35:54;28.50;;;19.10;;
9821;SDS011;4950;46.042;14.472;2023-12-14T11:38:21;32.58;;;21.38;;
9821;SDS011;4950;46.042;14.472;2023-12-14T11:40:49;31.38;;;19.73;;
9821;SDS011;4950;46.042;14.472;2023-12-14T11:43:16;29.40;;;19.83;;
9821;SDS011;4950;46.042;14.472;2023-12-14T11:45:47;29.42;;;20.20;;
9821;SDS011;4950;46.042;14.472;2023-12-14T11:48:14;29.85;;;19.08;;
9821;SDS011;4950;46.042;14.472;2023-12-14T11:50:41;28.42;;;19.15;;
9821;SDS011;4950;46.042;14.472;2023-12-14T11:53:09;26.85;;;17.90;;
9821;SDS011;4950;46.042;14.472;2023-12-14T11:55:37;30.70;;;19.85;;
9821;SDS011;4950;46.042;14.472;2023-12-14T11:58:05;29.40;;;19.50;;
9821;SDS011;4950;46.042;14.472;2023-12-14T12:00:32;32.63;;;19.08;;
9821;SDS011;4950;46.042;14.472;2023-12-14T12:03:13;29.50;;;20.25;;
9821;SDS011;4950;46.042;14.472;2023-12-14T12:05:42;31.63;;;20.42;;
9821;SDS011;4950;46.042;14.472;2023-12-14T12:08:10;30.27;;;20.58;;
9821;SDS011;4950;46.042;14.472;2023-12-14T12:10:37;30.83;;;21.05;;
9821;SDS011;4950;46.042;14.472;2023-12-14T12:13:06;32.58;;;21.40;;
9821;SDS011;4950;46.042;14.472;2023-12-14T12:15:33;35.38;;;21.92;;
9821;SDS011;4950;46.042;14.472;2023-12-14T12:18:02;37.20;;;22.90;;
9821;SDS011;4950;46.042;14.472;2023-12-14T12:20:31;31.77;;;20.77;;
9821;SDS011;4950;46.042;14.472;2023-12-14T12:22:58;33.63;;;21.08;;
9821;SDS011;4950;46.042;14.472;2023-12-14T12:25:25;33.08;;;22.05;;
9821;SDS011;4950;46.042;14.472;2023-12-14T12:27:52;29.50;;;20.08;;
9821;SDS011;4950;46.042;14.472;2023-12-14T12:30:20;33.80;;;21.60;;
9821;SDS011;4950;46.042;14.472;2023-12-14T12:32:47;30.60;;;20.15;;
9821;SDS011;4950;46.042;14.472;2023-12-14T12:35:16;32.10;;;22.20;;
9821;SDS011;4950;46.042;14.472;2023-12-14T12:37:44;31.35;;;20.98;;
9821;SDS011;4950;46.042;14.472;2023-12-14T12:40:11;31.73;;;21.10;;
9821;SDS011;4950;46.042;14.472;2023-12-14T12:42:38;29.83;;;19.73;;
9821;SDS011;4950;46.042;14.472;2023-12-14T12:45:05;31.40;;;21.23;;
9821;SDS011;4950;46.042;14.472;2023-12-14T12:47:32;31.27;;;20.40;;
9821;SDS011;4950;46.042;14.472;2023-12-14T12:49:59;30.58;;;19.73;;
9821;SDS011;4950;46.042;14.472;2023-12-14T12:52:26;26.98;;;18.33;;
9821;SDS011;4950;46.042;14.472;2023-12-14T12:54:54;31.50;;;19.73;;
9821;SDS011;4950;46.042;14.472;2023-12-14T12:57:21;27.85;;;19.52;;
9821;SDS011;4950;46.042;14.472;2023-12-14T12:59:47;29.60;;;20.33;;
9821;SDS011;4950;46.042;14.472;2023-12-14T13:02:14;30.15;;;19.27;;
9821;SDS011;4950;46.042;14.472;2023-12-14T13:04:41;29.73;;;19.33;;
9821;SDS011;4950;46.042;14.472;2023-12-14T13:07:08;31.17;;;19.65;;
9821;SDS011;4950;46.042;14.472;2023-12-14T13:09:37;33.97;;;21.85;;
9821;SDS011;4950;46.042;14.472;2023-12-14T13:12:05;33.08;;;22.08;;
9821;SDS011;4950;46.042;14.472;2023-12-14T13:14:32;36.38;;;23.33;;
9821;SDS011;4950;46.042;14.472;2023-12-14T13:16:59;35.70;;;22.40;;
9821;SDS011;4950;46.042;14.472;2023-12-14T13:19:26;35.58;;;22.42;;
9821;SDS011;4950;46.042;14.472;2023-12-14T13:21:54;31.02;;;20.48;;
9821;SDS011;4950;46.042;14.472;2023-12-14T13:24:21;30.88;;;21.05;;
9821;SDS011;4950;46.042;14.472;2023-12-14T13:26:49;31.15;;;20.95;;
9821;SDS011;4950;46.042;14.472;2023-12-14T13:29:17;29.40;;;19.63;;
9821;SDS011;4950;46.042;14.472;2023-12-14T13:31:43;30.38;;;20.58;;
9821;SDS011;4950;46.042;14.472;2023-12-14T13:34:10;27.33;;;18.90;;
9821;SDS011;4950;46.042;14.472;2023-12-14T13:36:37;26.92;;;19.25;;
9821;SDS011;4950;46.042;14.472;2023-12-14T13:39:04;28.95;;;19.85;;
9821;SDS011;4950;46.042;14.472;2023-12-14T13:41:31;31.10;;;19.38;;
9821;SDS011;4950;46.042;14.472;2023-12-14T13:43:59;29.60;;;19.42;;
9821;SDS011;4950;46.042;14.472;2023-12-14T13:46:28;27.50;;;18.85;;
9821;SDS011;4950;46.042;14.472;2023-12-14T13:48:55;28.40;;;18.33;;
9821;SDS011;4950;46.042;14.472;2023-12-14T13:51:22;25.58;;;16.77;;
9821;SDS011;4950;46.042;14.472;2023-12-14T13:53:48;27.95;;;18.20;;
9821;SDS011;4950;46.042;14.472;2023-12-14T13:56:15;25.60;;;17.38;;
9821;SDS011;4950;46.042;14.472;2023-12-14T13:58:44;23.10;;;15.85;;
9821;SDS011;4950;46.042;14.472;2023-12-14T14:01:11;25.13;;;17.23;;
9821;SDS011;4950;46.042;14.472;2023-12-14T14:03:40;27.17;;;16.95;;
9821;SDS011;4950;46.042;14.472;2023-12-14T14:06:07;27.02;;;16.65;;
9821;SDS011;4950;46.042;14.472;2023-12-14T14:08:35;25.02;;;17.60;;
9821;SDS011;4950;46.042;14.472;2023-12-14T14:11:02;24.38;;;16.95;;
9821;SDS011;4950;46.042;14.472;2023-12-14T14:13:29;27.00;;;17.60;;
9821;SDS011;4950;46.042;14.472;2023-12-14T14:15:56;22.38;;;15.55;;
9821;SDS011;4950;46.042;14.472;2023-12-14T14:18:22;23.50;;;15.43;;
9821;SDS011;4950;46.042;14.472;2023-12-14T14:20:50;25.13;;;17.15;;
9821;SDS011;4950;46.042;14.472;2023-12-14T14:23:17;29.63;;;19.10;;
9821;SDS011;4950;46.042;14.472;2023-12-14T14:25:44;29.88;;;19.10;;
9821;SDS011;4950;46.042;14.472;2023-12-14T14:28:11;28.10;;;19.25;;
9821;SDS011;4950;46.042;14.472;2023-12-14T14:30:38;30.30;;;19.05;;
9821;SDS011;4950;46.042;14.472;2023-12-14T14:33:05;31.20;;;21.85;;
9821;SDS011;4950;46.042;14.472;2023-12-14T14:35:32;29.95;;;20.10;;
9821;SDS011;4950;46.042;14.472;2023-12-14T14:40:30;31.27;;;20.48;;
9821;SDS011;4950;46.042;14.472;2023-12-14T14:42:57;32.72;;;20.05;;
9821;SDS011;4950;46.042;14.472;2023-12-14T14:45:23;31.05;;;20.58;;